sensor_id;sensor_type;location;lat;lon;timestamp;pressure;altitude;pressure_sealevel;temperature;humidity
78170;BME280;67412;49.892;14.490;2023-08-17T00:00:14;97483.91;;;18.26;95.38
78170;BME280;67412;49.892;14.490;2023-08-17T00:02:40;97491.78;;;18.24;95.01
78170;BME280;67412;49.892;14.490;2023-08-17T00:05:06;97487.47;;;18.23;93.94
78170;BME280;67412;49.892;14.490;2023-08-17T00:07:35;97485.78;;;18.22;94.45
78170;BME280;67412;49.892;14.490;2023-08-17T00:10:01;97485.91;;;18.19;93.76
78170;BME280;67412;49.892;14.490;2023-08-17T00:12:26;97487.16;;;18.11;94.71
78170;BME280;67412;49.892;14.490;2023-08-17T00:14:52;97479.69;;;18.03;95.11
78170;BME280;67412;49.892;14.490;2023-08-17T00:17:17;97481.47;;;18.01;96.66
78170;BME280;67412;49.892;14.490;2023-08-17T00:19:43;97476.81;;;18.09;95.11
78170;BME280;67412;49.892;14.490;2023-08-17T00:22:08;97470.63;;;18.12;95.55
78170;BME280;67412;49.892;14.490;2023-08-17T00:24:33;97458.56;;;18.11;94.45
78170;BME280;67412;49.892;14.490;2023-08-17T00:26:59;97455.94;;;17.91;95.25
78170;BME280;67412;49.892;14.490;2023-08-17T00:29:24;97454.94;;;17.73;96.52
78170;BME280;67412;49.892;14.490;2023-08-17T00:31:50;97456.69;;;17.72;95.87
78170;BME280;67412;49.892;14.490;2023-08-17T00:34:16;97443.50;;;17.77;94.99
78170;BME280;67412;49.892;14.490;2023-08-17T00:36:41;97451.31;;;17.77;95.33
78170;BME280;67412;49.892;14.490;2023-08-17T00:39:06;97450.63;;;17.72;95.96
78170;BME280;67412;49.892;14.490;2023-08-17T00:41:32;97451.78;;;17.65;96.06
78170;BME280;67412;49.892;14.490;2023-08-17T00:43:57;97447.38;;;17.67;96.38
78170;BME280;67412;49.892;14.490;2023-08-17T00:46:23;97450.81;;;17.67;95.14
78170;BME280;67412;49.892;14.490;2023-08-17T00:48:49;97454.28;;;17.68;94.42
78170;BME280;67412;49.892;14.490;2023-08-17T00:51:14;97446.59;;;17.65;94.30
78170;BME280;67412;49.892;14.490;2023-08-17T00:53:41;97449.38;;;17.60;95.52
78170;BME280;67412;49.892;14.490;2023-08-17T00:56:07;97441.97;;;17.50;97.50
78170;BME280;67412;49.892;14.490;2023-08-17T00:58:32;97443.00;;;17.46;96.77
78170;BME280;67412;49.892;14.490;2023-08-17T01:00:58;97443.69;;;17.51;96.46
78170;BME280;67412;49.892;14.490;2023-08-17T01:03:24;97445.84;;;17.39;96.48
78170;BME280;67412;49.892;14.490;2023-08-17T01:05:50;97445.06;;;17.37;95.50
78170;BME280;67412;49.892;14.490;2023-08-17T01:08:16;97448.63;;;17.35;97.04
78170;BME280;67412;49.892;14.490;2023-08-17T01:10:55;97461.22;;;17.22;99.47
78170;BME280;67412;49.892;14.490;2023-08-17T01:13:27;97462.03;;;17.24;98.77
78170;BME280;67412;49.892;14.490;2023-08-17T01:15:58;97450.97;;;17.19;99.81
78170;BME280;67412;49.892;14.490;2023-08-17T01:18:29;97447.22;;;17.26;98.95
78170;BME280;67412;49.892;14.490;2023-08-17T01:20:56;97444.81;;;17.22;100.00
78170;BME280;67412;49.892;14.490;2023-08-17T01:23:22;97446.78;;;17.15;100.00
78170;BME280;67412;49.892;14.490;2023-08-17T01:25:48;97451.31;;;17.10;99.83
78170;BME280;67412;49.892;14.490;2023-08-17T01:28:13;97448.81;;;17.07;99.26
78170;BME280;67412;49.892;14.490;2023-08-17T01:31:11;97447.38;;;17.00;100.00
78170;BME280;67412;49.892;14.490;2023-08-17T01:33:52;97444.00;;;16.98;100.00
78170;BME280;67412;49.892;14.490;2023-08-17T01:36:26;97446.59;;;16.98;100.00
78170;BME280;67412;49.892;14.490;2023-08-17T01:38:52;97448.25;;;16.99;99.54
78170;BME280;67412;49.892;14.490;2023-08-17T01:41:20;97445.66;;;16.99;100.00
78170;BME280;67412;49.892;14.490;2023-08-17T01:43:48;97443.47;;;16.88;100.00
78170;BME280;67412;49.892;14.490;2023-08-17T01:46:14;97437.22;;;16.94;100.00
78170;BME280;67412;49.892;14.490;2023-08-17T01:48:43;97435.28;;;16.99;100.00
78170;BME280;67412;49.892;14.490;2023-08-17T01:51:10;97436.75;;;17.06;100.00
78170;BME280;67412;49.892;14.490;2023-08-17T01:53:35;97430.53;;;17.10;100.00
78170;BME280;67412;49.892;14.490;2023-08-17T01:56:01;97431.25;;;17.14;100.00
78170;BME280;67412;49.892;14.490;2023-08-17T01:58:26;97420.78;;;17.17;100.00
78170;BME280;67412;49.892;14.490;2023-08-17T02:00:51;97428.28;;;17.24;99.53
78170;BME280;67412;49.892;14.490;2023-08-17T02:03:16;97421.44;;;17.22;99.18
78170;BME280;67412;49.892;14.490;2023-08-17T02:05:45;97415.63;;;17.15;99.19
78170;BME280;67412;49.892;14.490;2023-08-17T02:08:11;97415.69;;;17.14;99.35
78170;BME280;67412;49.892;14.490;2023-08-17T02:10:36;97404.81;;;17.04;99.47
78170;BME280;67412;49.892;14.490;2023-08-17T02:13:02;97403.25;;;17.00;99.98
78170;BME280;67412;49.892;14.490;2023-08-17T02:15:27;97413.66;;;16.77;100.00
78170;BME280;67412;49.892;14.490;2023-08-17T02:17:52;97422.78;;;16.64;100.00
78170;BME280;67412;49.892;14.490;2023-08-17T02:20:18;97421.78;;;16.68;100.00
78170;BME280;67412;49.892;14.490;2023-08-17T02:22:44;97425.97;;;16.72;100.00
78170;BME280;67412;49.892;14.490;2023-08-17T02:25:09;97423.25;;;16.75;100.00
78170;BME280;67412;49.892;14.490;2023-08-17T02:27:34;97425.59;;;16.81;100.00
78170;BME280;67412;49.892;14.490;2023-08-17T02:30:00;97425.00;;;16.74;100.00
78170;BME280;67412;49.892;14.490;2023-08-17T02:32:25;97418.91;;;16.75;100.00
78170;BME280;67412;49.892;14.490;2023-08-17T02:34:50;97413.94;;;16.69;100.00
78170;BME280;67412;49.892;14.490;2023-08-17T02:37:16;97415.59;;;16.72;100.00
78170;BME280;67412;49.892;14.490;2023-08-17T02:39:41;97414.44;;;16.79;100.00
78170;BME280;67412;49.892;14.490;2023-08-17T02:42:06;97414.78;;;16.70;100.00
78170;BME280;67412;49.892;14.490;2023-08-17T02:44:32;97408.81;;;16.68;100.00
78170;BME280;67412;49.892;14.490;2023-08-17T02:46:57;97412.31;;;16.67;100.00
78170;BME280;67412;49.892;14.490;2023-08-17T02:49:22;97413.72;;;16.75;100.00
78170;BME280;67412;49.892;14.490;2023-08-17T02:51:47;97411.13;;;16.75;100.00
78170;BME280;67412;49.892;14.490;2023-08-17T02:54:13;97409.25;;;16.79;100.00
78170;BME280;67412;49.892;14.490;2023-08-17T02:56:38;97403.38;;;16.74;100.00
78170;BME280;67412;49.892;14.490;2023-08-17T02:59:03;97409.59;;;16.70;100.00
78170;BME280;67412;49.892;14.490;2023-08-17T03:01:29;97408.63;;;16.72;100.00
78170;BME280;67412;49.892;14.490;2023-08-17T03:03:55;97414.91;;;16.67;100.00
78170;BME280;67412;49.892;14.490;2023-08-17T03:06:20;97410.69;;;16.64;100.00
78170;BME280;67412;49.892;14.490;2023-08-17T03:08:45;97406.91;;;16.48;100.00
78170;BME280;67412;49.892;14.490;2023-08-17T03:11:11;97412.97;;;16.47;100.00
78170;BME280;67412;49.892;14.490;2023-08-17T03:13:36;97412.69;;;16.31;100.00
78170;BME280;67412;49.892;14.490;2023-08-17T03:16:01;97417.88;;;16.31;100.00
78170;BME280;67412;49.892;14.490;2023-08-17T03:18:27;97421.38;;;16.30;100.00
78170;BME280;67412;49.892;14.490;2023-08-17T03:20:52;97419.69;;;16.29;100.00
78170;BME280;67412;49.892;14.490;2023-08-17T03:23:17;97422.59;;;16.20;100.00
78170;BME280;67412;49.892;14.490;2023-08-17T03:25:43;97429.69;;;16.15;100.00
78170;BME280;67412;49.892;14.490;2023-08-17T03:28:08;97427.09;;;16.15;100.00
78170;BME280;67412;49.892;14.490;2023-08-17T03:30:33;97428.72;;;16.18;100.00
78170;BME280;67412;49.892;14.490;2023-08-17T03:32:59;97427.19;;;16.12;100.00
78170;BME280;67412;49.892;14.490;2023-08-17T03:35:24;97432.69;;;16.03;100.00
78170;BME280;67412;49.892;14.490;2023-08-17T03:37:50;97433.47;;;16.05;100.00
78170;BME280;67412;49.892;14.490;2023-08-17T03:40:15;97440.31;;;16.08;100.00
78170;BME280;67412;49.892;14.490;2023-08-17T03:42:40;97439.50;;;16.06;100.00
78170;BME280;67412;49.892;14.490;2023-08-17T03:45:06;97442.84;;;16.09;100.00
78170;BME280;67412;49.892;14.490;2023-08-17T03:47:32;97437.47;;;16.15;100.00
78170;BME280;67412;49.892;14.490;2023-08-17T03:49:57;97453.50;;;16.26;100.00
78170;BME280;67412;49.892;14.490;2023-08-17T03:52:23;97452.06;;;16.18;100.00
78170;BME280;67412;49.892;14.490;2023-08-17T03:54:48;97452.06;;;16.18;100.00
78170;BME280;67412;49.892;14.490;2023-08-17T03:57:13;97458.03;;;16.20;100.00
78170;BME280;67412;49.892;14.490;2023-08-17T03:59:39;97457.47;;;16.12;100.00
78170;BME280;67412;49.892;14.490;2023-08-17T04:02:04;97461.25;;;16.02;100.00
78170;BME280;67412;49.892;14.490;2023-08-17T04:04:29;97453.31;;;16.06;100.00
78170;BME280;67412;49.892;14.490;2023-08-17T04:06:55;97456.50;;;16.14;100.00
78170;BME280;67412;49.892;14.490;2023-08-17T04:09:20;97468.66;;;16.12;100.00
78170;BME280;67412;49.892;14.490;2023-08-17T04:11:45;97458.34;;;16.11;100.00
78170;BME280;67412;49.892;14.490;2023-08-17T04:14:10;97460.94;;;16.11;100.00
78170;BME280;67412;49.892;14.490;2023-08-17T04:16:37;97464.78;;;15.99;100.00
78170;BME280;67412;49.892;14.490;2023-08-17T04:19:02;97464.00;;;15.97;100.00
78170;BME280;67412;49.892;14.490;2023-08-17T04:21:28;97469.88;;;16.02;100.00
78170;BME280;67412;49.892;14.490;2023-08-17T04:23:53;97475.19;;;15.98;100.00
78170;BME280;67412;49.892;14.490;2023-08-17T04:26:18;97481.22;;;15.98;100.00
78170;BME280;67412;49.892;14.490;2023-08-17T04:28:44;97479.28;;;16.05;100.00
78170;BME280;67412;49.892;14.490;2023-08-17T04:31:09;97484.28;;;16.11;100.00
78170;BME280;67412;49.892;14.490;2023-08-17T04:33:34;97483.41;;;16.10;100.00
78170;BME280;67412;49.892;14.490;2023-08-17T04:36:00;97481.47;;;16.17;100.00
78170;BME280;67412;49.892;14.490;2023-08-17T04:38:26;97476.28;;;16.17;100.00
78170;BME280;67412;49.892;14.490;2023-08-17T04:40:51;97473.75;;;16.15;100.00
78170;BME280;67412;49.892;14.490;2023-08-17T04:43:17;97489.31;;;16.15;100.00
78170;BME280;67412;49.892;14.490;2023-08-17T04:45:42;97496.91;;;16.20;100.00
78170;BME280;67412;49.892;14.490;2023-08-17T04:48:07;97487.28;;;16.23;100.00
78170;BME280;67412;49.892;14.490;2023-08-17T04:50:33;97495.06;;;16.23;100.00
78170;BME280;67412;49.892;14.490;2023-08-17T04:52:58;97491.81;;;16.17;100.00
78170;BME280;67412;49.892;14.490;2023-08-17T04:55:24;97489.78;;;16.26;100.00
78170;BME280;67412;49.892;14.490;2023-08-17T04:57:49;97486.09;;;16.33;100.00
78170;BME280;67412;49.892;14.490;2023-08-17T05:00:15;97480.41;;;16.47;100.00
78170;BME280;67412;49.892;14.490;2023-08-17T05:02:40;97492.09;;;16.60;100.00
78170;BME280;67412;49.892;14.490;2023-08-17T05:05:07;97485.56;;;16.73;100.00
78170;BME280;67412;49.892;14.490;2023-08-17T05:07:33;97475.88;;;16.78;100.00
78170;BME280;67412;49.892;14.490;2023-08-17T05:09:59;97483.31;;;16.87;100.00
78170;BME280;67412;49.892;14.490;2023-08-17T05:12:25;97491.44;;;17.02;100.00
78170;BME280;67412;49.892;14.490;2023-08-17T05:14:50;97485.84;;;17.12;100.00
78170;BME280;67412;49.892;14.490;2023-08-17T05:17:15;97496.56;;;17.26;100.00
78170;BME280;67412;49.892;14.490;2023-08-17T05:19:41;97502.31;;;17.34;100.00
78170;BME280;67412;49.892;14.490;2023-08-17T05:22:11;97507.09;;;17.45;100.00
78170;BME280;67412;49.892;14.490;2023-08-17T05:24:38;97513.69;;;17.54;100.00
78170;BME280;67412;49.892;14.490;2023-08-17T05:27:03;97507.38;;;17.61;100.00
78170;BME280;67412;49.892;14.490;2023-08-17T05:29:29;97512.19;;;17.70;100.00
78170;BME280;67412;49.892;14.490;2023-08-17T05:31:54;97510.94;;;17.80;100.00
78170;BME280;67412;49.892;14.490;2023-08-17T05:34:19;97515.84;;;17.88;100.00
78170;BME280;67412;49.892;14.490;2023-08-17T05:36:45;97516.13;;;18.02;100.00
78170;BME280;67412;49.892;14.490;2023-08-17T05:39:10;97516.41;;;18.16;100.00
78170;BME280;67412;49.892;14.490;2023-08-17T05:41:35;97506.84;;;18.16;99.56
78170;BME280;67412;49.892;14.490;2023-08-17T05:44:01;97508.25;;;18.25;99.59
78170;BME280;67412;49.892;14.490;2023-08-17T05:46:26;97516.31;;;18.39;99.34
78170;BME280;67412;49.892;14.490;2023-08-17T05:48:52;97513.25;;;18.50;99.37
78170;BME280;67412;49.892;14.490;2023-08-17T05:51:17;97516.03;;;18.67;100.00
78170;BME280;67412;49.892;14.490;2023-08-17T05:53:42;97526.91;;;18.75;100.00
78170;BME280;67412;49.892;14.490;2023-08-17T05:56:08;97516.16;;;18.82;99.04
78170;BME280;67412;49.892;14.490;2023-08-17T05:58:33;97513.50;;;18.84;98.10
78170;BME280;67412;49.892;14.490;2023-08-17T06:01:09;97513.56;;;18.82;98.71
78170;BME280;67412;49.892;14.490;2023-08-17T06:03:35;97519.75;;;19.00;97.14
78170;BME280;67412;49.892;14.490;2023-08-17T06:06:00;97515.59;;;19.15;95.87
78170;BME280;67412;49.892;14.490;2023-08-17T06:08:26;97518.00;;;19.19;94.24
78170;BME280;67412;49.892;14.490;2023-08-17T06:10:51;97514.69;;;19.35;93.60
78170;BME280;67412;49.892;14.490;2023-08-17T06:13:16;97512.59;;;19.43;93.73
78170;BME280;67412;49.892;14.490;2023-08-17T06:15:42;97516.25;;;19.57;92.84
78170;BME280;67412;49.892;14.490;2023-08-17T06:18:07;97509.41;;;19.73;95.54
78170;BME280;67412;49.892;14.490;2023-08-17T06:20:32;97513.13;;;19.87;94.61
78170;BME280;67412;49.892;14.490;2023-08-17T06:22:58;97507.63;;;19.93;93.80
78170;BME280;67412;49.892;14.490;2023-08-17T06:25:23;97510.38;;;20.07;94.31
78170;BME280;67412;49.892;14.490;2023-08-17T06:27:49;97517.84;;;20.14;91.83
78170;BME280;67412;49.892;14.490;2023-08-17T06:30:15;97517.81;;;20.33;91.60
78170;BME280;67412;49.892;14.490;2023-08-17T06:32:41;97517.66;;;20.36;92.37
78170;BME280;67412;49.892;14.490;2023-08-17T06:35:06;97515.50;;;20.44;89.83
78170;BME280;67412;49.892;14.490;2023-08-17T06:37:32;97517.28;;;20.61;88.69
78170;BME280;67412;49.892;14.490;2023-08-17T06:39:57;97501.97;;;20.70;88.11
78170;BME280;67412;49.892;14.490;2023-08-17T06:42:22;97506.78;;;20.78;87.69
78170;BME280;67412;49.892;14.490;2023-08-17T06:44:48;97507.19;;;20.88;88.45
78170;BME280;67412;49.892;14.490;2023-08-17T06:47:13;97510.88;;;21.16;86.89
78170;BME280;67412;49.892;14.490;2023-08-17T06:49:38;97518.50;;;21.37;82.86
78170;BME280;67412;49.892;14.490;2023-08-17T06:52:04;97510.81;;;21.49;83.00
78170;BME280;67412;49.892;14.490;2023-08-17T06:54:29;97503.91;;;21.64;82.16
78170;BME280;67412;49.892;14.490;2023-08-17T06:56:57;97497.34;;;21.73;81.74
78170;BME280;67412;49.892;14.490;2023-08-17T06:59:22;97502.81;;;21.84;84.11
78170;BME280;67412;49.892;14.490;2023-08-17T07:01:47;97501.78;;;21.86;80.74
78170;BME280;67412;49.892;14.490;2023-08-17T07:04:13;97504.31;;;21.88;80.39
78170;BME280;67412;49.892;14.490;2023-08-17T07:06:38;97496.06;;;21.95;80.04
78170;BME280;67412;49.892;14.490;2023-08-17T07:09:03;97484.91;;;22.07;82.59
78170;BME280;67412;49.892;14.490;2023-08-17T07:11:30;97493.00;;;22.19;80.56
78170;BME280;67412;49.892;14.490;2023-08-17T07:13:55;97490.19;;;22.22;80.29
78170;BME280;67412;49.892;14.490;2023-08-17T07:16:21;97485.00;;;22.36;80.42
78170;BME280;67412;49.892;14.490;2023-08-17T07:18:46;97490.88;;;22.39;80.60
78170;BME280;67412;49.892;14.490;2023-08-17T07:21:12;97489.97;;;22.54;77.73
78170;BME280;67412;49.892;14.490;2023-08-17T07:23:37;97487.56;;;22.65;78.29
78170;BME280;67412;49.892;14.490;2023-08-17T07:26:02;97492.25;;;22.60;78.43
78170;BME280;67412;49.892;14.490;2023-08-17T07:28:28;97499.72;;;22.82;78.00
78170;BME280;67412;49.892;14.490;2023-08-17T07:30:53;97508.41;;;22.97;76.82
78170;BME280;67412;49.892;14.490;2023-08-17T07:33:18;97511.59;;;23.02;75.34
78170;BME280;67412;49.892;14.490;2023-08-17T07:35:44;97514.50;;;23.11;76.91
78170;BME280;67412;49.892;14.490;2023-08-17T07:38:09;97506.81;;;23.23;76.52
78170;BME280;67412;49.892;14.490;2023-08-17T07:40:35;97515.16;;;23.15;76.13
78170;BME280;67412;49.892;14.490;2023-08-17T07:43:00;97512.22;;;23.34;75.64
78170;BME280;67412;49.892;14.490;2023-08-17T07:45:26;97517.41;;;23.49;75.08
78170;BME280;67412;49.892;14.490;2023-08-17T07:47:52;97511.31;;;23.35;76.60
78170;BME280;67412;49.892;14.490;2023-08-17T07:50:17;97517.19;;;23.52;74.85
78170;BME280;67412;49.892;14.490;2023-08-17T07:52:43;97513.66;;;23.53;73.33
78170;BME280;67412;49.892;14.490;2023-08-17T07:55:08;97507.75;;;23.50;75.69
78170;BME280;67412;49.892;14.490;2023-08-17T07:57:33;97514.75;;;23.64;75.40
78170;BME280;67412;49.892;14.490;2023-08-17T07:59:59;97502.91;;;23.71;75.78
78170;BME280;67412;49.892;14.490;2023-08-17T08:02:24;97501.91;;;23.73;74.44
78170;BME280;67412;49.892;14.490;2023-08-17T08:04:50;97496.53;;;23.75;75.71
78170;BME280;67412;49.892;14.490;2023-08-17T08:07:15;97508.47;;;23.93;75.48
78170;BME280;67412;49.892;14.490;2023-08-17T08:09:40;97508.75;;;24.02;74.14
78170;BME280;67412;49.892;14.490;2023-08-17T08:12:06;97518.53;;;24.13;74.06
78170;BME280;67412;49.892;14.490;2023-08-17T08:14:33;97507.19;;;24.13;71.34
78170;BME280;67412;49.892;14.490;2023-08-17T08:16:58;97509.47;;;24.04;74.11
78170;BME280;67412;49.892;14.490;2023-08-17T08:19:24;97503.91;;;24.09;74.31
78170;BME280;67412;49.892;14.490;2023-08-17T08:21:49;97506.34;;;24.12;73.14
78170;BME280;67412;49.892;14.490;2023-08-17T08:24:14;97499.78;;;24.19;72.77
78170;BME280;67412;49.892;14.490;2023-08-17T08:26:40;97496.97;;;24.35;71.78
78170;BME280;67412;49.892;14.490;2023-08-17T08:29:05;97493.53;;;24.47;72.71
78170;BME280;67412;49.892;14.490;2023-08-17T08:31:30;97485.34;;;24.64;71.89
78170;BME280;67412;49.892;14.490;2023-08-17T08:33:56;97486.63;;;24.59;69.90
78170;BME280;67412;49.892;14.490;2023-08-17T08:36:21;97495.53;;;24.43;71.00
78170;BME280;67412;49.892;14.490;2023-08-17T08:38:46;97486.31;;;24.63;71.10
78170;BME280;67412;49.892;14.490;2023-08-17T08:41:12;97486.66;;;24.96;70.94
78170;BME280;67412;49.892;14.490;2023-08-17T08:43:38;97496.41;;;25.20;69.15
78170;BME280;67412;49.892;14.490;2023-08-17T08:46:04;97497.69;;;25.14;67.60
78170;BME280;67412;49.892;14.490;2023-08-17T08:48:31;97500.63;;;25.22;67.82
78170;BME280;67412;49.892;14.490;2023-08-17T08:51:00;97498.50;;;25.27;66.90
78170;BME280;67412;49.892;14.490;2023-08-17T08:53:39;97500.59;;;25.35;66.11
78170;BME280;67412;49.892;14.490;2023-08-17T08:56:11;97491.13;;;25.45;66.36
78170;BME280;67412;49.892;14.490;2023-08-17T08:58:38;97489.22;;;25.60;69.45
78170;BME280;67412;49.892;14.490;2023-08-17T09:01:06;97493.22;;;25.40;67.40
78170;BME280;67412;49.892;14.490;2023-08-17T09:03:32;97486.47;;;25.48;66.34
78170;BME280;67412;49.892;14.490;2023-08-17T09:05:58;97481.75;;;25.54;64.47
78170;BME280;67412;49.892;14.490;2023-08-17T09:08:27;97485.03;;;25.81;65.04
78170;BME280;67412;49.892;14.490;2023-08-17T09:10:54;97478.47;;;25.63;64.04
78170;BME280;67412;49.892;14.490;2023-08-17T09:13:19;97482.50;;;25.79;65.02
78170;BME280;67412;49.892;14.490;2023-08-17T09:15:45;97482.72;;;25.76;64.88
78170;BME280;67412;49.892;14.490;2023-08-17T09:18:10;97479.19;;;25.88;63.59
78170;BME280;67412;49.892;14.490;2023-08-17T09:20:41;97477.84;;;26.07;64.17
78170;BME280;67412;49.892;14.490;2023-08-17T09:23:11;97481.78;;;26.25;63.33
78170;BME280;67412;49.892;14.490;2023-08-17T09:25:42;97482.59;;;26.49;64.01
78170;BME280;67412;49.892;14.490;2023-08-17T09:28:12;97479.03;;;26.72;61.70
78170;BME280;67412;49.892;14.490;2023-08-17T09:30:50;97472.38;;;26.90;61.16
78170;BME280;67412;49.892;14.490;2023-08-17T09:33:20;97468.97;;;26.77;63.67
78170;BME280;67412;49.892;14.490;2023-08-17T09:35:45;97464.22;;;26.94;63.20
78170;BME280;67412;49.892;14.490;2023-08-17T09:38:11;97457.50;;;27.01;62.10
78170;BME280;67412;49.892;14.490;2023-08-17T09:40:36;97465.31;;;27.02;61.54
78170;BME280;67412;49.892;14.490;2023-08-17T09:43:02;97469.00;;;27.11;59.51
78170;BME280;67412;49.892;14.490;2023-08-17T09:45:27;97460.63;;;27.39;59.52
78170;BME280;67412;49.892;14.490;2023-08-17T09:47:54;97456.25;;;27.71;57.32
78170;BME280;67412;49.892;14.490;2023-08-17T09:50:23;97462.91;;;27.98;57.03
78170;BME280;67412;49.892;14.490;2023-08-17T09:52:53;97458.03;;;27.82;56.46
78170;BME280;67412;49.892;14.490;2023-08-17T09:55:23;97456.28;;;28.03;55.24
78170;BME280;67412;49.892;14.490;2023-08-17T09:57:51;97455.06;;;28.07;55.81
78170;BME280;67412;49.892;14.490;2023-08-17T10:00:19;97451.16;;;27.59;55.62
78170;BME280;67412;49.892;14.490;2023-08-17T10:02:44;97445.97;;;27.57;55.53
78170;BME280;67412;49.892;14.490;2023-08-17T10:05:11;97447.84;;;27.77;56.82
78170;BME280;67412;49.892;14.490;2023-08-17T10:07:41;97445.47;;;28.38;56.60
78170;BME280;67412;49.892;14.490;2023-08-17T10:10:09;97441.91;;;28.28;55.34
78170;BME280;67412;49.892;14.490;2023-08-17T10:12:49;97448.59;;;28.11;55.67
78170;BME280;67412;49.892;14.490;2023-08-17T10:15:19;97450.94;;;28.25;55.59
78170;BME280;67412;49.892;14.490;2023-08-17T10:18:09;97449.50;;;27.78;54.19
78170;BME280;67412;49.892;14.490;2023-08-17T10:20:36;97445.91;;;27.79;55.53
78170;BME280;67412;49.892;14.490;2023-08-17T10:23:16;97441.44;;;27.59;54.69
78170;BME280;67412;49.892;14.490;2023-08-17T10:25:42;97452.16;;;27.78;55.82
78170;BME280;67412;49.892;14.490;2023-08-17T10:28:09;97452.66;;;27.72;55.00
78170;BME280;67412;49.892;14.490;2023-08-17T10:30:36;97439.41;;;27.83;54.27
78170;BME280;67412;49.892;14.490;2023-08-17T10:33:04;97452.78;;;28.14;54.24
78170;BME280;67412;49.892;14.490;2023-08-17T10:35:31;97450.09;;;28.66;54.90
78170;BME280;67412;49.892;14.490;2023-08-17T10:37:58;97444.75;;;29.08;53.02
78170;BME280;67412;49.892;14.490;2023-08-17T10:40:27;97448.53;;;28.85;51.42
78170;BME280;67412;49.892;14.490;2023-08-17T10:42:54;97442.94;;;28.37;51.47
78170;BME280;67412;49.892;14.490;2023-08-17T10:45:33;97448.81;;;28.19;51.10
78170;BME280;67412;49.892;14.490;2023-08-17T10:50:32;97439.09;;;28.92;51.48
78170;BME280;67412;49.892;14.490;2023-08-17T10:52:58;97436.66;;;29.00;48.82
78170;BME280;67412;49.892;14.490;2023-08-17T10:55:36;97438.50;;;29.39;49.17
78170;BME280;67412;49.892;14.490;2023-08-17T10:58:02;97435.88;;;29.49;49.01
78170;BME280;67412;49.892;14.490;2023-08-17T11:00:33;97430.72;;;29.57;48.13
78170;BME280;67412;49.892;14.490;2023-08-17T11:03:01;97428.53;;;29.62;47.92
78170;BME280;67412;49.892;14.490;2023-08-17T11:08:20;97425.50;;;29.86;46.75
78170;BME280;67412;49.892;14.490;2023-08-17T11:11:07;97425.22;;;30.08;47.38
78170;BME280;67412;49.892;14.490;2023-08-17T11:13:42;97424.81;;;30.12;45.28
78170;BME280;67412;49.892;14.490;2023-08-17T11:16:09;97429.13;;;29.94;45.27
78170;BME280;67412;49.892;14.490;2023-08-17T11:18:35;97417.13;;;30.19;46.07
78170;BME280;67412;49.892;14.490;2023-08-17T11:21:07;97414.91;;;30.24;43.69
78170;BME280;67412;49.892;14.490;2023-08-17T11:23:35;97421.59;;;29.90;43.39
78170;BME280;67412;49.892;14.490;2023-08-17T11:26:01;97421.50;;;29.51;45.23
78170;BME280;67412;49.892;14.490;2023-08-17T11:28:30;97423.47;;;29.09;46.20
78170;BME280;67412;49.892;14.490;2023-08-17T11:31:02;97419.44;;;28.85;45.75
78170;BME280;67412;49.892;14.490;2023-08-17T11:33:30;97413.78;;;29.29;45.76
78170;BME280;67412;49.892;14.490;2023-08-17T11:36:01;97413.84;;;29.08;46.82
78170;BME280;67412;49.892;14.490;2023-08-17T11:38:30;97418.56;;;29.05;47.72
78170;BME280;67412;49.892;14.490;2023-08-17T11:40:58;97415.81;;;29.56;49.63
78170;BME280;67412;49.892;14.490;2023-08-17T11:43:24;97409.59;;;29.86;45.18
78170;BME280;67412;49.892;14.490;2023-08-17T11:45:49;97409.88;;;30.11;44.99
78170;BME280;67412;49.892;14.490;2023-08-17T11:48:15;97404.28;;;29.76;43.01
78170;BME280;67412;49.892;14.490;2023-08-17T11:50:42;97404.38;;;29.46;43.80
78170;BME280;67412;49.892;14.490;2023-08-17T11:53:07;97405.56;;;28.92;47.51
78170;BME280;67412;49.892;14.490;2023-08-17T11:55:33;97409.69;;;28.34;48.13
78170;BME280;67412;49.892;14.490;2023-08-17T11:57:58;97414.75;;;28.47;47.96
78170;BME280;67412;49.892;14.490;2023-08-17T12:00:23;97422.31;;;28.30;47.60
78170;BME280;67412;49.892;14.490;2023-08-17T12:02:51;97414.75;;;28.47;46.32
78170;BME280;67412;49.892;14.490;2023-08-17T12:05:24;97416.53;;;28.88;45.67
78170;BME280;67412;49.892;14.490;2023-08-17T12:07:50;97407.19;;;29.63;45.53
78170;BME280;67412;49.892;14.490;2023-08-17T12:10:18;97416.97;;;29.82;43.17
78170;BME280;67412;49.892;14.490;2023-08-17T12:12:46;97414.78;;;29.28;43.58
78170;BME280;67412;49.892;14.490;2023-08-17T12:15:13;97409.91;;;29.03;43.63
78170;BME280;67412;49.892;14.490;2023-08-17T12:17:49;97403.94;;;29.10;43.83
78170;BME280;67412;49.892;14.490;2023-08-17T12:20:20;97405.25;;;29.16;44.41
78170;BME280;67412;49.892;14.490;2023-08-17T12:22:47;97400.06;;;28.74;46.95
78170;BME280;67412;49.892;14.490;2023-08-17T12:25:12;97399.75;;;28.68;48.97
78170;BME280;67412;49.892;14.490;2023-08-17T12:27:38;97406.19;;;28.54;50.02
78170;BME280;67412;49.892;14.490;2023-08-17T12:30:04;97398.00;;;28.16;50.98
78170;BME280;67412;49.892;14.490;2023-08-17T12:32:30;97400.22;;;28.00;51.86
78170;BME280;67412;49.892;14.490;2023-08-17T12:34:55;97404.44;;;27.70;51.76
78170;BME280;67412;49.892;14.490;2023-08-17T12:37:21;97407.41;;;27.01;54.27
78170;BME280;67412;49.892;14.490;2023-08-17T12:39:47;97406.78;;;26.64;56.04
78170;BME280;67412;49.892;14.490;2023-08-17T12:42:13;97408.53;;;26.06;58.26
78170;BME280;67412;49.892;14.490;2023-08-17T12:44:42;97413.56;;;25.74;61.08
78170;BME280;67412;49.892;14.490;2023-08-17T12:47:07;97414.25;;;25.16;63.69
78170;BME280;67412;49.892;14.490;2023-08-17T12:49:32;97414.81;;;24.83;65.96